Time;durP1;ratioP1;P1;durP2;ratioP2;P2;SDS_P1;SDS_P2;PMS_P1;PMS_P2;Temp;Humidity;BMP_temperature;BMP_pressure;BME280_temperature;BME280_humidity;BME280_pressure;Samples;Min_cycle;Max_cycle;Signal;HPM_P1;HPM_P2
2023/05/23 00:00:37;;;;;;;0.52;0.52;;;20.60;99.90;;;;;;5018233;28;20491;-93
2023/05/23 00:03:03;;;;;;;0.88;0.65;;;20.70;99.90;;;;;;5017887;28;20029;-94
2023/05/23 00:05:29;;;;;;;0.20;0.20;;;20.60;99.90;;;;;;5036207;28;20088;-94
2023/05/23 00:07:54;;;;;;;0.82;0.55;;;20.60;99.90;;;;;;5018223;28;20033;-94
2023/05/23 00:10:21;;;;;;;1.83;0.77;;;20.70;99.90;;;;;;5035700;28;20024;-93
2023/05/23 00:12:47;;;;;;;0.32;0.32;;;20.70;99.90;;;;;;5007689;28;20050;-94
2023/05/23 00:15:13;;;;;;;2.55;0.88;;;20.60;99.90;;;;;;4998297;28;20072;-94
2023/05/23 00:17:39;;;;;;;1.83;0.90;;;20.80;99.90;;;;;;4998205;28;20045;-95
2023/05/23 00:20:08;;;;;;;0.38;0.38;;;20.50;99.90;;;;;;4998269;28;20018;-94
2023/05/23 00:22:35;;;;;;;2.17;0.75;;;20.40;99.90;;;;;;5015710;28;20038;-94
2023/05/23 00:25:01;;;;;;;1.50;0.63;;;20.40;99.90;;;;;;5015786;28;20056;-94
2023/05/23 00:27:26;;;;;;;1.65;1.08;;;20.40;99.90;;;;;;4998128;28;20022;-94
2023/05/23 00:29:52;;;;;;;1.13;0.50;;;20.30;99.90;;;;;;4997828;28;20040;-94
2023/05/23 00:32:18;;;;;;;1.48;1.10;;;20.40;99.90;;;;;;5015271;28;20022;-94
2023/05/23 00:34:44;;;;;;;0.70;0.70;;;20.40;99.90;;;;;;4998299;28;20201;-94
2023/05/23 00:37:10;;;;;;;1.55;0.30;;;20.40;99.90;;;;;;4997871;28;20037;-94
2023/05/23 00:39:36;;;;;;;1.77;1.10;;;20.40;99.90;;;;;;5016081;28;20032;-94
2023/05/23 00:42:04;;;;;;;1.10;0.90;;;20.20;99.90;;;;;;4997854;28;20125;-94
2023/05/23 00:44:30;;;;;;;1.05;0.75;;;20.10;99.90;;;;;;5014971;28;20018;-94
2023/05/23 00:46:56;;;;;;;1.10;1.00;;;20.10;99.90;;;;;;4998004;28;20108;-94
2023/05/23 00:49:23;;;;;;;0.93;0.82;;;20.20;99.90;;;;;;4997696;28;20065;-94
2023/05/23 00:51:50;;;;;;;2.15;1.10;;;20.30;99.90;;;;;;5014757;28;20112;-94
2023/05/23 00:54:23;;;;;;;1.80;0.98;;;20.10;99.90;;;;;;5015161;28;20030;-93
2023/05/23 00:56:49;;;;;;;0.50;0.50;;;20.20;99.90;;;;;;5015248;28;20034;-93
2023/05/23 00:59:15;;;;;;;0.75;0.75;;;20.20;99.90;;;;;;5014523;28;20458;-93
2023/05/23 01:01:45;;;;;;;1.15;0.82;;;20.20;99.90;;;;;;4997563;28;20025;-94
2023/05/23 01:04:12;;;;;;;1.27;1.17;;;20.20;99.90;;;;;;5014668;28;20513;-94
2023/05/23 01:06:38;;;;;;;1.33;1.05;;;20.20;99.90;;;;;;4996954;28;20014;-94
2023/05/23 01:09:03;;;;;;;0.30;0.30;;;20.20;99.90;;;;;;5014774;28;20033;-94
2023/05/23 01:11:53;;;;;;;1.35;1.25;;;20.00;99.90;;;;;;4997528;28;20071;-93
2023/05/23 01:14:31;;;;;;;1.80;0.70;;;19.90;99.90;;;;;;5002700;28;20079;-94
2023/05/23 01:17:14;;;;;;;3.38;1.45;;;20.00;99.90;;;;;;5017382;28;20110;-94
2023/05/23 01:19:50;;;;;;;3.50;1.48;;;19.90;99.90;;;;;;5034413;28;20049;-93
2023/05/23 01:23:06;;;;;;;0.55;0.55;;;19.80;99.90;;;;;;5016771;28;20478;-94
2023/05/23 01:25:48;;;;;;;3.17;0.82;;;19.90;99.90;;;;;;4954920;28;20161;-94
2023/05/23 01:28:20;;;;;;;1.48;0.88;;;19.80;99.90;;;;;;4954144;29;20082;-93
2023/05/23 01:30:47;;;;;;;1.27;0.80;;;20.00;99.90;;;;;;4954326;29;20078;-93
2023/05/23 01:33:15;;;;;;;1.38;1.02;;;20.00;99.90;;;;;;4954170;29;20027;-94
2023/05/23 01:35:42;;;;;;;0.52;0.52;;;19.80;99.90;;;;;;4937895;29;20492;-94
2023/05/23 01:38:08;;;;;;;0.77;0.75;;;19.90;99.90;;;;;;4953765;29;20117;-94
2023/05/23 01:40:34;;;;;;;1.40;1.17;;;19.90;99.90;;;;;;4954181;29;20127;-94
2023/05/23 01:43:01;;;;;;;1.13;0.95;;;19.80;99.90;;;;;;4937486;29;20062;-94
2023/05/23 01:45:28;;;;;;;1.05;0.98;;;19.70;99.90;;;;;;4938220;29;20030;-94
2023/05/23 01:47:55;;;;;;;0.60;0.60;;;19.70;99.90;;;;;;4949409;28;20053;-94
2023/05/23 01:50:22;;;;;;;2.53;1.30;;;19.80;99.90;;;;;;4973328;28;20034;-93
2023/05/23 01:52:49;;;;;;;3.83;1.02;;;19.80;99.90;;;;;;4973139;28;20434;-94
2023/05/23 01:55:21;;;;;;;1.05;0.95;;;19.70;99.90;;;;;;4957565;28;20039;-93
2023/05/23 01:57:50;;;;;;;1.58;1.40;;;19.70;99.90;;;;;;4972909;28;20043;-95
2023/05/23 02:00:16;;;;;;;2.55;1.50;;;19.70;99.90;;;;;;4972759;28;20023;-94
2023/05/23 02:02:42;;;;;;;1.38;1.13;;;19.70;99.90;;;;;;5008425;28;20068;-94
2023/05/23 02:05:09;;;;;;;0.73;0.52;;;19.70;99.90;;;;;;5035773;28;20052;-94
2023/05/23 02:07:35;;;;;;;5.47;0.95;;;19.70;99.90;;;;;;5053838;28;20129;-93
2023/05/23 02:10:02;;;;;;;0.63;0.55;;;19.70;99.90;;;;;;5036357;28;20020;-94
2023/05/23 02:12:28;;;;;;;1.45;1.35;;;19.80;99.90;;;;;;5044847;28;20079;-94
2023/05/23 02:14:54;;;;;;;0.60;0.60;;;20.00;99.90;;;;;;5016650;28;20109;-93
2023/05/23 02:17:20;;;;;;;1.08;1.02;;;19.80;99.90;;;;;;4995448;28;20111;-94
2023/05/23 02:19:47;;;;;;;0.65;0.60;;;19.70;99.90;;;;;;5013664;28;20033;-94
2023/05/23 02:22:13;;;;;;;0.73;0.52;;;19.70;99.90;;;;;;4996494;28;20026;-94
2023/05/23 02:24:38;;;;;;;0.85;0.85;;;19.70;99.90;;;;;;5013833;28;20485;-94
2023/05/23 02:27:04;;;;;;;3.58;1.17;;;19.50;99.90;;;;;;4996379;28;20038;-93
2023/05/23 02:29:30;;;;;;;1.05;0.95;;;19.50;99.90;;;;;;5013312;28;20126;-94
2023/05/23 02:31:55;;;;;;;1.27;1.02;;;19.40;99.90;;;;;;5013694;28;20025;-94
2023/05/23 02:34:21;;;;;;;1.30;1.02;;;19.40;99.90;;;;;;5013463;28;20022;-94
2023/05/23 02:36:47;;;;;;;0.80;0.80;;;19.50;99.90;;;;;;5013370;28;20157;-94
2023/05/23 02:39:14;;;;;;;1.50;1.30;;;19.40;99.90;;;;;;5013274;28;20030;-94
2023/05/23 02:41:39;;;;;;;0.80;0.80;;;19.40;99.90;;;;;;5012852;28;20036;-94
2023/05/23 02:44:05;;;;;;;1.35;0.98;;;19.30;99.90;;;;;;4996389;28;20022;-94
2023/05/23 02:46:31;;;;;;;0.98;0.50;;;19.50;99.90;;;;;;5013164;28;20026;-94
2023/05/23 02:48:56;;;;;;;1.70;0.95;;;19.60;99.90;;;;;;5013674;28;20022;-94
2023/05/23 02:51:22;;;;;;;1.45;0.70;;;19.40;99.90;;;;;;5013158;28;20030;-95
2023/05/23 02:53:47;;;;;;;1.13;0.88;;;19.40;99.90;;;;;;4995778;28;20030;-94
2023/05/23 02:56:14;;;;;;;0.57;0.57;;;19.30;99.90;;;;;;4996349;28;20087;-93
2023/05/23 02:58:40;;;;;;;1.52;1.02;;;19.40;99.90;;;;;;5013328;28;20036;-94
2023/05/23 03:01:07;;;;;;;1.48;1.10;;;19.30;99.90;;;;;;5013882;28;20030;-95
2023/05/23 03:03:33;;;;;;;2.30;0.65;;;19.20;99.90;;;;;;4996199;28;20030;-95
2023/05/23 03:05:59;;;;;;;3.00;1.27;;;19.40;99.90;;;;;;5013135;28;20026;-94
2023/05/23 03:08:25;;;;;;;1.00;1.00;;;19.20;99.90;;;;;;4995555;28;20427;-94
2023/05/23 03:10:51;;;;;;;2.30;0.68;;;19.20;99.90;;;;;;4995467;28;20068;-93
2023/05/23 03:13:17;;;;;;;1.20;1.10;;;19.30;99.90;;;;;;5010203;28;20041;-94
2023/05/23 03:15:43;;;;;;;1.23;1.10;;;19.00;99.90;;;;;;5033184;28;20048;-94
2023/05/23 03:18:09;;;;;;;1.52;0.65;;;19.20;99.90;;;;;;5032306;28;20482;-94
2023/05/23 03:20:34;;;;;;;0.70;0.60;;;19.00;99.90;;;;;;5032599;28;20025;-93
2023/05/23 03:23:00;;;;;;;1.17;0.60;;;18.90;99.90;;;;;;5033281;28;20099;-95
2023/05/23 03:25:25;;;;;;;1.13;0.80;;;19.00;99.90;;;;;;5015506;28;20022;-94
2023/05/23 03:27:51;;;;;;;2.03;1.27;;;18.80;99.90;;;;;;5032653;28;20469;-93
2023/05/23 03:30:17;;;;;;;0.30;0.30;;;19.00;99.90;;;;;;5018763;28;20029;-93
2023/05/23 03:32:42;;;;;;;1.13;0.65;;;19.10;99.90;;;;;;5036592;28;20126;-93
2023/05/23 03:35:08;;;;;;;3.72;0.52;;;19.00;99.90;;;;;;5036675;28;20493;-94
2023/05/23 03:37:34;;;;;;;2.45;0.40;;;19.10;99.90;;;;;;5018849;28;20124;-93
2023/05/23 03:40:00;;;;;;;1.45;0.98;;;18.90;99.90;;;;;;5018335;28;20049;-93
2023/05/23 03:42:27;;;;;;;1.77;1.00;;;18.80;99.90;;;;;;5036748;28;20029;-95
2023/05/23 03:44:53;;;;;;;0.57;0.57;;;18.90;99.90;;;;;;5036529;28;20033;-93
2023/05/23 03:47:18;;;;;;;1.67;1.17;;;18.80;99.90;;;;;;5036407;28;20030;-93
2023/05/23 03:49:44;;;;;;;0.95;0.80;;;18.90;99.90;;;;;;5018460;28;20026;-94
2023/05/23 03:52:10;;;;;;;0.75;0.70;;;19.00;99.90;;;;;;5018361;28;20032;-93
2023/05/23 03:54:36;;;;;;;1.38;0.98;;;18.90;99.90;;;;;;5035656;28;20033;-94
2023/05/23 03:57:02;;;;;;;0.85;0.75;;;19.10;99.90;;;;;;5018391;28;20049;-94
2023/05/23 03:59:28;;;;;;;0.57;0.57;;;19.00;99.90;;;;;;5018369;28;20112;-94
2023/05/23 04:01:55;;;;;;;0.85;0.85;;;18.90;99.90;;;;;;5035698;28;20124;-94
2023/05/23 04:04:20;;;;;;;1.08;1.02;;;18.80;99.90;;;;;;5018424;28;20024;-94
2023/05/23 04:06:46;;;;;;;0.85;0.85;;;18.80;99.90;;;;;;5018312;28;20127;-94
2023/05/23 04:09:13;;;;;;;0.70;0.70;;;18.70;99.90;;;;;;5035600;28;20025;-95
2023/05/23 04:11:38;;;;;;;3.88;2.00;;;19.00;99.90;;;;;;5036507;28;20465;-93
2023/05/23 04:14:04;;;;;;;0.88;0.80;;;18.60;99.90;;;;;;5035527;28;20033;-93
2023/05/23 04:16:31;;;;;;;0.43;0.25;;;18.60;99.90;;;;;;5023026;28;20225;-96
2023/05/23 04:18:58;;;;;;;1.00;0.73;;;18.70;99.90;;;;;;5037478;28;20026;-96
2023/05/23 04:21:24;;;;;;;0.43;0.40;;;18.70;99.90;;;;;;5024422;28;20028;-96
2023/05/23 04:23:49;;;;;;;0.98;0.98;;;18.50;99.90;;;;;;5018576;28;20021;-96
2023/05/23 04:26:15;;;;;;;1.27;0.68;;;18.50;99.90;;;;;;5018095;28;20033;-92
2023/05/23 04:28:45;;;;;;;0.73;0.45;;;18.70;99.90;;;;;;5018716;28;20437;-92
2023/05/23 04:31:11;;;;;;;0.25;0.25;;;18.60;99.90;;;;;;5017218;28;20108;-91
2023/05/23 04:33:37;;;;;;;1.58;0.90;;;18.70;99.90;;;;;;5035590;28;20026;-91
2023/05/23 04:36:03;;;;;;;0.82;0.82;;;18.60;99.90;;;;;;5017422;28;20048;-91
2023/05/23 04:38:29;;;;;;;1.30;0.63;;;18.50;99.90;;;;;;5034788;28;20482;-91
2023/05/23 04:40:56;;;;;;;0.77;0.77;;;18.50;99.90;;;;;;5016412;28;20025;-91
2023/05/23 04:43:25;;;;;;;1.13;0.73;;;18.60;99.90;;;;;;5034930;28;20397;-91
2023/05/23 04:45:53;;;;;;;0.90;0.90;;;18.60;99.90;;;;;;5034695;28;20029;-91
2023/05/23 04:48:20;;;;;;;0.70;0.70;;;18.60;99.90;;;;;;5016762;28;20025;-92
2023/05/23 04:50:46;;;;;;;0.50;0.50;;;18.70;99.90;;;;;;5017026;28;20474;-91
2023/05/23 04:53:12;;;;;;;0.85;0.85;;;18.70;99.90;;;;;;5034059;28;20036;-92
2023/05/23 04:55:38;;;;;;;0.47;0.40;;;18.60;99.90;;;;;;5016833;28;20021;-92
2023/05/23 04:58:03;;;;;;;0.30;0.30;;;18.20;99.90;;;;;;5016659;28;20033;-92
2023/05/23 05:00:29;;;;;;;2.35;0.77;;;18.80;99.90;;;;;;5017269;28;20028;-93
2023/05/23 05:02:55;;;;;;;0.60;0.60;;;18.90;99.90;;;;;;5035006;28;20072;-93
2023/05/23 05:05:20;;;;;;;0.68;0.63;;;19.00;99.90;;;;;;5016416;28;20076;-93
2023/05/23 05:07:46;;;;;;;0.88;0.73;;;19.00;99.90;;;;;;5033946;28;20509;-93
2023/05/23 05:10:17;;;;;;;0.55;0.50;;;19.00;99.90;;;;;;5033945;28;20033;-93
2023/05/23 05:12:50;;;;;;;0.95;0.60;;;18.80;99.90;;;;;;5033777;28;20057;-93
2023/05/23 05:15:16;;;;;;;0.70;0.70;;;18.60;99.90;;;;;;5034602;28;20158;-93
2023/05/23 05:17:43;;;;;;;0.90;0.60;;;18.70;99.90;;;;;;5033819;28;20037;-93
2023/05/23 05:20:09;;;;;;;1.77;1.17;;;18.70;99.90;;;;;;5034448;28;20021;-93
2023/05/23 05:22:39;;;;;;;1.70;0.82;;;18.80;99.90;;;;;;5033493;28;20087;-92
2023/05/23 05:25:06;;;;;;;0.73;0.65;;;18.70;99.90;;;;;;5033886;28;20507;-93
2023/05/23 05:27:32;;;;;;;1.23;1.13;;;18.30;99.90;;;;;;5033661;28;20485;-93
2023/05/23 05:30:03;;;;;;;3.03;1.58;;;18.50;99.90;;;;;;5016582;28;20047;-93
2023/05/23 05:32:32;;;;;;;1.08;0.90;;;18.40;99.90;;;;;;5015892;28;20072;-93
2023/05/23 05:34:59;;;;;;;1.33;1.23;;;18.60;99.90;;;;;;5033426;28;20029;-93
2023/05/23 05:37:24;;;;;;;1.52;0.93;;;18.40;99.90;;;;;;5033331;28;20575;-92
2023/05/23 05:39:50;;;;;;;0.68;0.68;;;18.50;99.90;;;;;;5015955;28;20025;-93
2023/05/23 05:42:16;;;;;;;2.20;0.82;;;18.60;99.90;;;;;;5033632;28;20064;-93
2023/05/23 05:44:41;;;;;;;0.73;0.65;;;18.40;99.90;;;;;;5033618;28;20371;-93
2023/05/23 05:47:07;;;;;;;1.35;0.90;;;18.60;99.90;;;;;;5033203;28;20025;-93
2023/05/23 05:49:33;;;;;;;2.45;1.00;;;18.50;99.90;;;;;;5015365;28;20045;-93
2023/05/23 05:51:58;;;;;;;2.08;1.70;;;18.50;99.90;;;;;;5032775;28;20037;-93
2023/05/23 05:54:24;;;;;;;1.23;1.13;;;18.40;99.90;;;;;;5015571;28;20021;-93
2023/05/23 05:56:50;;;;;;;1.08;1.00;;;18.30;99.90;;;;;;5033445;28;20041;-93
2023/05/23 05:59:15;;;;;;;1.13;1.02;;;18.50;99.90;;;;;;5016168;28;20035;-93
2023/05/23 06:01:41;;;;;;;2.42;1.27;;;18.40;99.90;;;;;;5033332;28;20076;-92
2023/05/23 06:04:07;;;;;;;1.25;0.93;;;18.50;99.90;;;;;;5015642;28;20153;-93
2023/05/23 06:06:32;;;;;;;6.25;1.17;;;18.40;99.90;;;;;;5015242;28;20044;-93
2023/05/23 06:08:58;;;;;;;1.17;1.15;;;18.50;99.90;;;;;;5044271;28;20019;-86
2023/05/23 06:11:24;;;;;;;1.92;1.08;;;18.40;99.90;;;;;;5033578;28;20059;-84
2023/05/23 06:13:49;;;;;;;1.40;0.90;;;18.60;99.90;;;;;;5012941;28;20100;-83
2023/05/23 06:16:15;;;;;;;1.02;0.88;;;18.50;99.90;;;;;;5007606;28;20045;-82
2023/05/23 06:18:40;;;;;;;1.38;0.70;;;18.40;99.90;;;;;;5012257;28;20462;-82
2023/05/23 06:21:06;;;;;;;2.03;0.98;;;18.60;99.90;;;;;;5012699;28;20039;-83
2023/05/23 06:23:32;;;;;;;1.58;1.48;;;18.60;99.90;;;;;;5013004;28;20051;-82
2023/05/23 06:25:58;;;;;;;0.45;0.45;;;18.60;99.90;;;;;;5012611;28;20072;-82
2023/05/23 06:28:24;;;;;;;0.95;0.93;;;18.60;99.90;;;;;;5013090;28;20030;-82
2023/05/23 06:30:50;;;;;;;1.70;1.23;;;18.60;99.90;;;;;;5012915;28;20026;-82
2023/05/23 06:33:15;;;;;;;0.35;0.35;;;18.40;99.90;;;;;;5012054;28;20033;-83
2023/05/23 06:35:41;;;;;;;1.67;0.80;;;18.50;99.90;;;;;;5012380;28;20029;-82
2023/05/23 06:38:07;;;;;;;0.47;0.47;;;18.50;99.90;;;;;;5012282;28;20526;-83
2023/05/23 06:40:33;;;;;;;1.05;0.88;;;18.40;99.90;;;;;;5012309;28;20041;-82
2023/05/23 06:42:59;;;;;;;1.08;0.93;;;18.60;99.90;;;;;;5012319;28;20501;-83
2023/05/23 06:45:24;;;;;;;1.13;1.02;;;18.50;99.90;;;;;;5012729;28;20030;-82
2023/05/23 06:47:50;;;;;;;1.65;1.35;;;18.50;99.90;;;;;;5022745;28;20396;-82
2023/05/23 06:50:18;;;;;;;0.45;0.45;;;18.50;99.90;;;;;;5032041;28;20549;-82
2023/05/23 06:52:45;;;;;;;1.05;0.90;;;18.50;99.90;;;;;;5032044;28;20041;-83
2023/05/23 06:55:16;;;;;;;1.17;1.08;;;18.40;99.90;;;;;;5031722;28;20022;-83
2023/05/23 06:57:42;;;;;;;3.70;0.85;;;18.30;99.90;;;;;;5032306;28;20044;-83
2023/05/23 07:00:09;;;;;;;1.55;0.90;;;18.40;99.90;;;;;;5029914;28;20265;-85
2023/05/23 07:02:34;;;;;;;0.63;0.55;;;18.50;99.90;;;;;;5020641;28;20041;-85
2023/05/23 07:05:00;;;;;;;0.77;0.77;;;18.60;99.90;;;;;;5035612;28;20397;-86
2023/05/23 07:07:25;;;;;;;0.25;0.25;;;18.60;99.90;;;;;;5035892;28;20492;-85
2023/05/23 07:09:51;;;;;;;0.80;0.80;;;18.50;99.90;;;;;;5018172;28;20024;-85
2023/05/23 07:12:16;;;;;;;0.55;0.43;;;18.70;99.90;;;;;;5031116;28;20440;-84
2023/05/23 07:14:42;;;;;;;0.40;0.40;;;18.50;99.90;;;;;;5020503;28;20037;-84
2023/05/23 07:17:08;;;;;;;1.98;1.27;;;18.60;99.90;;;;;;5016503;28;20042;-84
2023/05/23 07:19:33;;;;;;;1.45;1.35;;;18.60;99.90;;;;;;5015889;28;20374;-85
2023/05/23 07:21:59;;;;;;;1.85;1.58;;;18.50;99.90;;;;;;5017321;28;20033;-84
2023/05/23 07:24:24;;;;;;;1.90;1.38;;;18.50;99.90;;;;;;5015752;28;20053;-86
2023/05/23 07:26:50;;;;;;;1.20;1.13;;;18.50;99.90;;;;;;5016830;28;20545;-84
2023/05/23 07:29:16;;;;;;;0.57;0.57;;;18.70;99.90;;;;;;5014115;28;20026;-84
2023/05/23 07:31:41;;;;;;;2.65;1.17;;;18.70;99.90;;;;;;5018195;28;20058;-85
2023/05/23 07:34:07;;;;;;;1.85;1.30;;;18.70;99.90;;;;;;5025746;28;20017;-85
2023/05/23 07:36:34;;;;;;;0.45;0.45;;;18.60;99.90;;;;;;5016410;28;20030;-84
2023/05/23 07:39:00;;;;;;;0.85;0.85;;;18.70;99.90;;;;;;5028434;28;20065;-84
2023/05/23 07:41:26;;;;;;;1.10;1.02;;;18.60;99.90;;;;;;5035498;28;20385;-85
2023/05/23 07:43:52;;;;;;;1.10;0.73;;;18.70;99.90;;;;;;5035121;28;20036;-84
2023/05/23 07:46:17;;;;;;;0.52;0.52;;;18.70;99.90;;;;;;5018109;28;20391;-83
2023/05/23 07:48:43;;;;;;;1.50;0.65;;;18.80;99.90;;;;;;5016259;28;20049;-84
2023/05/23 07:51:09;;;;;;;1.35;0.68;;;18.70;99.90;;;;;;5015229;28;20088;-84
2023/05/23 07:53:38;;;;;;;0.73;0.73;;;18.70;99.90;;;;;;5011383;28;20474;-84
2023/05/23 07:56:05;;;;;;;1.52;1.02;;;18.60;99.90;;;;;;5029507;28;20055;-85
2023/05/23 07:58:30;;;;;;;3.78;1.40;;;18.60;99.90;;;;;;5016084;28;20565;-85
2023/05/23 08:00:56;;;;;;;3.72;0.70;;;18.60;99.90;;;;;;5030952;28;20025;-86
2023/05/23 08:03:22;;;;;;;3.63;1.25;;;18.70;99.90;;;;;;5021277;28;20038;-84
2023/05/23 08:05:48;;;;;;;1.83;0.70;;;18.60;99.90;;;;;;5016182;28;20498;-86
2023/05/23 08:08:15;;;;;;;1.40;1.30;;;18.70;99.90;;;;;;5017247;28;20045;-85
2023/05/23 08:10:40;;;;;;;3.08;1.02;;;18.70;99.90;;;;;;5034930;28;20026;-86
2023/05/23 08:13:08;;;;;;;4.25;1.63;;;18.70;99.90;;;;;;5032395;28;20045;-85
2023/05/23 08:15:34;;;;;;;2.05;0.75;;;18.60;99.90;;;;;;5017629;28;20041;-85
2023/05/23 08:18:00;;;;;;;0.60;0.60;;;18.60;99.90;;;;;;5014829;28;20046;-85
2023/05/23 08:20:29;;;;;;;0.40;0.40;;;18.70;99.90;;;;;;5014691;28;20084;-85
2023/05/23 08:23:02;;;;;;;2.83;1.55;;;18.60;99.90;;;;;;5015739;28;20390;-84
2023/05/23 08:25:31;;;;;;;1.10;1.10;;;18.60;99.90;;;;;;5015808;28;20034;-84
2023/05/23 08:27:57;;;;;;;0.22;0.22;;;18.60;99.90;;;;;;5022694;28;20057;-96
2023/05/23 08:30:24;;;;;;;4.00;1.25;;;18.70;99.90;;;;;;5036890;28;20541;-86
2023/05/23 08:32:54;;;;;;;2.95;1.63;;;18.80;99.90;;;;;;5029370;28;20033;-81
2023/05/23 08:35:20;;;;;;;3.17;1.30;;;18.70;99.90;;;;;;5032843;28;20041;-83
2023/05/23 08:37:47;;;;;;;1.02;0.95;;;18.90;99.90;;;;;;5034003;28;20052;-83
2023/05/23 08:40:17;;;;;;;0.88;0.88;;;18.80;99.90;;;;;;5034674;28;20033;-83
2023/05/23 08:42:43;;;;;;;0.85;0.85;;;18.90;99.90;;;;;;5034051;28;20091;-82
2023/05/23 08:45:09;;;;;;;0.98;0.95;;;19.00;99.90;;;;;;5033676;28;20533;-82
2023/05/23 08:47:39;;;;;;;2.92;1.08;;;19.20;99.90;;;;;;5025233;28;20026;-82
2023/05/23 08:50:09;;;;;;;2.75;0.93;;;19.20;99.90;;;;;;5014508;28;20482;-83
2023/05/23 08:52:41;;;;;;;0.80;0.80;;;19.20;99.90;;;;;;5014035;28;20072;-82
2023/05/23 08:55:08;;;;;;;0.55;0.55;;;19.20;99.90;;;;;;5013034;28;20115;-83
2023/05/23 08:57:35;;;;;;;0.85;0.75;;;19.30;99.90;;;;;;5028049;28;20405;-85
2023/05/23 09:00:04;;;;;;;1.00;0.95;;;19.40;99.90;;;;;;5032430;28;20477;-82
2023/05/23 09:02:31;;;;;;;1.02;0.68;;;19.40;99.90;;;;;;5014071;28;20026;-82
2023/05/23 09:04:58;;;;;;;0.28;0.28;;;19.40;99.90;;;;;;5008395;28;20076;-82
2023/05/23 09:07:24;;;;;;;2.22;1.52;;;19.40;99.90;;;;;;5013445;28;20595;-82
2023/05/23 09:09:49;;;;;;;0.77;0.73;;;19.20;99.90;;;;;;5013932;28;20030;-82
2023/05/23 09:12:15;;;;;;;1.80;0.75;;;19.30;99.90;;;;;;5013046;28;20045;-82
2023/05/23 09:14:43;;;;;;;0.45;0.45;;;19.30;99.90;;;;;;5013502;28;20038;-82
2023/05/23 09:17:09;;;;;;;0.55;0.55;;;19.40;99.90;;;;;;5014850;28;20041;-82
2023/05/23 09:19:40;;;;;;;0.32;0.32;;;19.20;99.90;;;;;;4995932;28;20037;-83
2023/05/23 09:22:06;;;;;;;0.65;0.65;;;19.30;99.90;;;;;;5001073;28;20129;-83
2023/05/23 09:24:35;;;;;;;1.42;0.77;;;19.30;99.90;;;;;;4993983;28;20602;-82
2023/05/23 09:27:02;;;;;;;2.13;1.10;;;19.20;99.90;;;;;;5014650;28;20041;-83
2023/05/23 09:29:27;;;;;;;1.08;0.95;;;19.20;99.90;;;;;;5031981;28;20029;-82
2023/05/23 09:32:09;;;;;;;1.10;1.00;;;19.20;99.90;;;;;;5029530;28;20057;-82
2023/05/23 09:34:34;;;;;;;0.75;0.75;;;19.30;99.90;;;;;;5013841;28;20510;-83
2023/05/23 09:37:00;;;;;;;0.90;0.50;;;19.20;99.90;;;;;;5013228;28;20034;-86
2023/05/23 09:39:25;;;;;;;0.50;0.50;;;19.20;99.90;;;;;;4996196;28;20026;-88
2023/05/23 09:41:51;;;;;;;0.88;0.88;;;19.20;99.90;;;;;;5014418;28;20080;-87
2023/05/23 09:44:23;;;;;;;0.63;0.63;;;19.20;99.90;;;;;;5013108;28;20527;-83
2023/05/23 09:46:52;;;;;;;0.82;0.82;;;19.20;99.90;;;;;;5013162;28;20030;-83
2023/05/23 09:49:18;;;;;;;1.25;1.15;;;19.20;99.90;;;;;;5013457;28;20026;-83
2023/05/23 09:51:55;;;;;;;1.92;1.38;;;19.20;99.90;;;;;;5013164;28;20394;-83
2023/05/23 09:54:21;;;;;;;3.03;2.15;;;19.10;99.90;;;;;;5013144;28;20109;-83
2023/05/23 09:56:47;;;;;;;1.67;0.70;;;19.10;99.90;;;;;;5012571;28;20463;-83
2023/05/23 09:59:15;;;;;;;2.90;1.35;;;19.10;99.90;;;;;;5012894;28;20029;-83
2023/05/23 10:01:46;;;;;;;1.08;0.75;;;19.00;99.90;;;;;;5013333;28;20038;-83
2023/05/23 10:04:16;;;;;;;0.55;0.55;;;19.00;99.90;;;;;;5012840;28;20029;-83
2023/05/23 10:06:50;;;;;;;1.70;0.85;;;19.00;99.90;;;;;;5012890;28;20034;-83
2023/05/23 10:09:19;;;;;;;0.57;0.57;;;18.90;99.90;;;;;;5012588;28;20026;-83
2023/05/23 10:12:12;;;;;;;0.50;0.50;;;19.10;99.90;;;;;;5014467;28;20104;-83
2023/05/23 10:14:42;;;;;;;1.20;1.13;;;19.20;99.90;;;;;;5032314;28;20038;-83
2023/05/23 10:17:17;;;;;;;0.82;0.57;;;19.20;99.90;;;;;;5032609;28;20066;-83
2023/05/23 10:19:55;;;;;;;1.58;0.90;;;19.20;99.90;;;;;;5032777;28;20022;-83
2023/05/23 10:22:23;;;;;;;1.92;1.35;;;19.00;99.90;;;;;;5032361;28;20034;-84
2023/05/23 10:24:49;;;;;;;1.88;1.30;;;19.10;99.90;;;;;;5031866;28;20033;-83
2023/05/23 10:27:15;;;;;;;0.77;0.77;;;19.10;99.90;;;;;;5032151;28;20050;-83
2023/05/23 10:29:41;;;;;;;1.98;1.30;;;19.20;99.90;;;;;;5032335;28;20430;-83
2023/05/23 10:32:08;;;;;;;3.83;1.45;;;19.20;99.90;;;;;;5032967;28;20083;-83
2023/05/23 10:35:00;;;;;;;3.35;0.98;;;19.20;99.90;;;;;;5032228;28;20378;-82
2023/05/23 10:37:41;;;;;;;1.60;1.42;;;19.20;99.90;;;;;;4951597;28;20051;-83
2023/05/23 10:40:25;;;;;;;4.05;2.75;;;19.30;99.90;;;;;;4951169;29;20499;-83
2023/05/23 10:42:53;;;;;;;1.58;1.48;;;19.30;99.90;;;;;;4951954;29;20044;-83
2023/05/23 10:45:20;;;;;;;1.00;0.90;;;19.40;99.90;;;;;;4951894;29;20106;-83
2023/05/23 10:47:55;;;;;;;3.28;1.13;;;19.60;99.90;;;;;;4961552;28;20043;-83
2023/05/23 10:50:35;;;;;;;1.55;1.13;;;19.70;99.90;;;;;;4971221;28;20098;-83
2023/05/23 10:53:02;;;;;;;0.75;0.68;;;19.70;99.90;;;;;;4971409;28;20019;-83
2023/05/23 10:55:35;;;;;;;0.88;0.85;;;19.70;99.90;;;;;;4970717;28;20050;-83
2023/05/23 10:58:16;;;;;;;0.77;0.77;;;19.70;99.90;;;;;;4970675;28;20050;-83
2023/05/23 11:00:55;;;;;;;1.50;1.00;;;19.60;99.90;;;;;;4970950;28;20415;-83
2023/05/23 11:03:34;;;;;;;1.13;0.85;;;19.50;99.90;;;;;;4971107;28;20373;-83
2023/05/23 11:06:01;;;;;;;3.20;1.98;;;19.60;99.90;;;;;;4970851;28;20023;-83
2023/05/23 11:08:28;;;;;;;1.52;1.38;;;19.60;99.90;;;;;;4970705;28;20034;-83
2023/05/23 11:11:02;;;;;;;0.77;0.77;;;19.40;99.90;;;;;;4971155;28;20152;-83
2023/05/23 11:13:53;;;;;;;2.15;1.35;;;19.50;99.90;;;;;;4975538;28;20295;-83
2023/05/23 11:16:26;;;;;;;2.22;1.98;;;19.60;99.90;;;;;;5031665;28;20045;-83
2023/05/23 11:19:15;;;;;;;0.95;0.95;;;19.80;99.90;;;;;;5031692;28;20029;-83
2023/05/23 11:21:43;;;;;;;1.52;1.15;;;19.90;99.90;;;;;;5031807;28;20033;-83
2023/05/23 11:24:09;;;;;;;3.22;2.05;;;20.10;99.90;;;;;;5031500;28;20176;-83
2023/05/23 11:26:35;;;;;;;5.00;1.50;;;20.10;99.90;;;;;;5031658;28;20528;-83
2023/05/23 11:29:02;;;;;;;2.13;1.17;;;20.40;99.90;;;;;;5031686;28;20057;-83
2023/05/23 11:31:29;;;;;;;1.55;1.38;;;20.50;99.90;;;;;;5032073;28;20040;-83
2023/05/23 11:33:55;;;;;;;3.45;2.15;;;20.60;99.90;;;;;;5031579;28;20040;-83
2023/05/23 11:36:21;;;;;;;0.80;0.80;;;20.40;99.90;;;;;;5031465;28;20108;-83
2023/05/23 11:38:51;;;;;;;1.75;1.33;;;20.50;99.90;;;;;;5031257;28;20397;-83
2023/05/23 11:41:17;;;;;;;0.63;0.60;;;20.60;99.90;;;;;;5031515;28;20438;-83
2023/05/23 11:43:52;;;;;;;0.88;0.88;;;20.60;99.90;;;;;;5031975;28;20087;-83
2023/05/23 11:46:18;;;;;;;2.65;1.45;;;20.50;99.90;;;;;;5031832;28;20060;-83
2023/05/23 11:48:45;;;;;;;1.35;1.17;;;20.40;99.90;;;;;;5031332;28;20477;-83
2023/05/23 11:51:11;;;;;;;3.70;1.33;;;20.30;99.90;;;;;;5034679;28;20083;-83
2023/05/23 11:53:37;;;;;;;2.28;1.75;;;20.30;99.90;;;;;;5035065;28;20018;-83
2023/05/23 11:56:03;;;;;;;3.28;1.75;;;20.50;99.90;;;;;;5035477;28;20399;-82
2023/05/23 11:58:33;;;;;;;1.20;1.10;;;20.60;99.90;;;;;;5034751;28;20444;-83
2023/05/23 12:01:05;;;;;;;0.73;0.73;;;20.70;99.90;;;;;;5035066;28;20056;-83
2023/05/23 12:03:43;;;;;;;0.90;0.90;;;20.70;99.90;;;;;;5017209;28;20048;-83
2023/05/23 12:06:09;;;;;;;1.23;1.08;;;20.60;99.90;;;;;;5034881;28;20477;-83
2023/05/23 12:08:35;;;;;;;1.80;1.23;;;20.70;99.90;;;;;;5034397;28;20120;-83
2023/05/23 12:11:01;;;;;;;4.13;2.20;;;21.00;99.90;;;;;;5034896;28;20028;-83
2023/05/23 12:13:28;;;;;;;1.35;1.25;;;21.00;99.90;;;;;;5034377;28;20680;-83
2023/05/23 12:15:59;;;;;;;4.15;1.75;;;20.90;99.90;;;;;;5035067;28;20021;-83
2023/05/23 12:18:30;;;;;;;1.13;1.02;;;21.10;99.90;;;;;;5034537;28;20040;-83
2023/05/23 12:21:00;;;;;;;1.25;0.82;;;21.00;99.90;;;;;;5034216;28;20037;-83
2023/05/23 12:23:28;;;;;;;0.90;0.80;;;21.10;99.90;;;;;;5034809;28;20032;-83
2023/05/23 12:25:55;;;;;;;0.68;0.68;;;21.50;99.90;;;;;;5016803;28;20033;-84
2023/05/23 12:28:35;;;;;;;0.73;0.60;;;21.60;99.90;;;;;;5034923;28;20017;-83
2023/05/23 12:31:12;;;;;;;1.40;1.00;;;21.40;99.90;;;;;;5034633;28;20021;-83
2023/05/23 12:33:44;;;;;;;0.77;0.77;;;21.50;99.90;;;;;;5034485;28;20022;-83
2023/05/23 12:36:11;;;;;;;2.53;1.80;;;21.20;99.90;;;;;;5033946;28;20025;-83
2023/05/23 12:38:37;;;;;;;1.40;1.30;;;21.10;99.90;;;;;;5034114;28;20504;-83
2023/05/23 12:41:10;;;;;;;0.88;0.88;;;21.10;99.90;;;;;;5034194;28;20045;-83
2023/05/23 12:43:40;;;;;;;5.45;1.20;;;21.00;99.90;;;;;;5034592;28;20104;-83
2023/05/23 12:46:06;;;;;;;1.23;0.85;;;20.90;99.90;;;;;;5033932;28;20017;-83
2023/05/23 12:48:32;;;;;;;0.80;0.80;;;21.00;99.90;;;;;;5033665;28;20371;-83
2023/05/23 12:50:58;;;;;;;0.50;0.40;;;21.00;99.90;;;;;;5034456;28;20018;-83